sensor_id;sensor_type;location;lat;lon;timestamp;P1;durP1;ratioP1;P2;durP2;ratioP2
37559;SDS011;23398;50.928;7.084;2022-11-20T00:00:47;8.00;;;6.43;;
37559;SDS011;23398;50.928;7.084;2022-11-20T00:03:12;8.20;;;6.68;;
37559;SDS011;23398;50.928;7.084;2022-11-20T00:05:38;8.30;;;6.47;;
37559;SDS011;23398;50.928;7.084;2022-11-20T00:08:04;8.70;;;6.68;;
37559;SDS011;23398;50.928;7.084;2022-11-20T00:10:29;8.88;;;6.45;;
37559;SDS011;23398;50.928;7.084;2022-11-20T00:12:55;9.15;;;7.10;;
37559;SDS011;23398;50.928;7.084;2022-11-20T00:15:22;7.90;;;6.18;;
37559;SDS011;23398;50.928;7.084;2022-11-20T00:17:47;7.45;;;6.28;;
37559;SDS011;23398;50.928;7.084;2022-11-20T00:20:13;9.00;;;6.70;;
37559;SDS011;23398;50.928;7.084;2022-11-20T00:22:39;8.27;;;6.47;;
37559;SDS011;23398;50.928;7.084;2022-11-20T00:25:04;7.88;;;6.20;;
37559;SDS011;23398;50.928;7.084;2022-11-20T00:27:30;9.10;;;6.90;;
37559;SDS011;23398;50.928;7.084;2022-11-20T00:29:56;9.05;;;7.03;;
37559;SDS011;23398;50.928;7.084;2022-11-20T00:32:21;9.05;;;6.65;;
37559;SDS011;23398;50.928;7.084;2022-11-20T00:34:47;8.15;;;6.30;;
37559;SDS011;23398;50.928;7.084;2022-11-20T00:37:14;8.38;;;6.25;;
37559;SDS011;23398;50.928;7.084;2022-11-20T00:39:39;7.97;;;6.25;;
37559;SDS011;23398;50.928;7.084;2022-11-20T00:42:05;8.15;;;6.55;;
37559;SDS011;23398;50.928;7.084;2022-11-20T00:44:30;8.40;;;6.60;;
37559;SDS011;23398;50.928;7.084;2022-11-20T00:46:56;9.02;;;6.43;;
37559;SDS011;23398;50.928;7.084;2022-11-20T00:49:21;9.52;;;6.93;;
37559;SDS011;23398;50.928;7.084;2022-11-20T00:51:47;9.77;;;6.63;;
37559;SDS011;23398;50.928;7.084;2022-11-20T00:54:13;8.15;;;6.38;;
37559;SDS011;23398;50.928;7.084;2022-11-20T00:56:38;8.70;;;6.50;;
37559;SDS011;23398;50.928;7.084;2022-11-20T00:59:04;7.93;;;6.30;;
37559;SDS011;23398;50.928;7.084;2022-11-20T01:01:30;8.02;;;6.45;;
37559;SDS011;23398;50.928;7.084;2022-11-20T01:03:56;9.85;;;6.93;;
37559;SDS011;23398;50.928;7.084;2022-11-20T01:06:25;9.27;;;5.93;;
37559;SDS011;23398;50.928;7.084;2022-11-20T01:08:52;7.63;;;6.10;;
37559;SDS011;23398;50.928;7.084;2022-11-20T01:11:20;7.00;;;5.93;;
37559;SDS011;23398;50.928;7.084;2022-11-20T01:13:48;7.40;;;5.88;;
37559;SDS011;23398;50.928;7.084;2022-11-20T01:16:19;7.78;;;6.50;;
37559;SDS011;23398;50.928;7.084;2022-11-20T01:18:47;8.00;;;6.32;;
37559;SDS011;23398;50.928;7.084;2022-11-20T01:21:16;7.85;;;6.07;;
37559;SDS011;23398;50.928;7.084;2022-11-20T01:23:44;8.95;;;6.72;;
37559;SDS011;23398;50.928;7.084;2022-11-20T01:26:11;8.15;;;6.45;;
37559;SDS011;23398;50.928;7.084;2022-11-20T01:28:40;8.23;;;6.47;;
37559;SDS011;23398;50.928;7.084;2022-11-20T01:31:16;7.43;;;6.43;;
37559;SDS011;23398;50.928;7.084;2022-11-20T01:33:54;8.73;;;6.38;;
37559;SDS011;23398;50.928;7.084;2022-11-20T01:36:21;8.02;;;6.40;;
37559;SDS011;23398;50.928;7.084;2022-11-20T01:38:52;7.45;;;5.95;;
37559;SDS011;23398;50.928;7.084;2022-11-20T01:41:19;8.43;;;6.70;;
37559;SDS011;23398;50.928;7.084;2022-11-20T01:44:04;7.97;;;6.30;;
37559;SDS011;23398;50.928;7.084;2022-11-20T01:46:30;8.18;;;6.75;;
37559;SDS011;23398;50.928;7.084;2022-11-20T01:49:02;8.57;;;6.50;;
37559;SDS011;23398;50.928;7.084;2022-11-20T01:51:44;10.10;;;7.53;;
37559;SDS011;23398;50.928;7.084;2022-11-20T01:54:17;8.27;;;6.82;;
37559;SDS011;23398;50.928;7.084;2022-11-20T01:56:46;9.32;;;7.25;;
37559;SDS011;23398;50.928;7.084;2022-11-20T01:59:17;8.45;;;7.00;;
37559;SDS011;23398;50.928;7.084;2022-11-20T02:01:44;8.38;;;6.72;;
37559;SDS011;23398;50.928;7.084;2022-11-20T02:04:09;8.77;;;6.97;;
37559;SDS011;23398;50.928;7.084;2022-11-20T02:06:48;7.85;;;6.50;;
37559;SDS011;23398;50.928;7.084;2022-11-20T02:09:25;9.63;;;6.57;;
37559;SDS011;23398;50.928;7.084;2022-11-20T02:11:52;8.30;;;6.60;;
37559;SDS011;23398;50.928;7.084;2022-11-20T02:14:18;8.32;;;6.10;;
37559;SDS011;23398;50.928;7.084;2022-11-20T02:16:45;7.80;;;6.18;;
37559;SDS011;23398;50.928;7.084;2022-11-20T02:19:17;9.77;;;6.82;;
37559;SDS011;23398;50.928;7.084;2022-11-20T02:24:21;9.48;;;7.03;;
37559;SDS011;23398;50.928;7.084;2022-11-20T02:29:39;8.23;;;6.28;;
37559;SDS011;23398;50.928;7.084;2022-11-20T02:32:19;8.10;;;6.50;;
37559;SDS011;23398;50.928;7.084;2022-11-20T02:34:50;9.00;;;6.55;;
37559;SDS011;23398;50.928;7.084;2022-11-20T02:37:15;8.35;;;6.43;;
37559;SDS011;23398;50.928;7.084;2022-11-20T02:39:41;8.15;;;6.50;;
37559;SDS011;23398;50.928;7.084;2022-11-20T02:42:09;7.78;;;6.55;;
37559;SDS011;23398;50.928;7.084;2022-11-20T02:44:35;8.50;;;6.68;;
37559;SDS011;23398;50.928;7.084;2022-11-20T02:47:00;7.85;;;6.30;;
37559;SDS011;23398;50.928;7.084;2022-11-20T02:49:26;8.23;;;6.72;;
37559;SDS011;23398;50.928;7.084;2022-11-20T02:51:51;9.15;;;6.68;;
37559;SDS011;23398;50.928;7.084;2022-11-20T02:54:17;9.63;;;6.75;;
37559;SDS011;23398;50.928;7.084;2022-11-20T02:56:42;9.35;;;6.40;;
37559;SDS011;23398;50.928;7.084;2022-11-20T02:59:08;8.98;;;6.80;;
37559;SDS011;23398;50.928;7.084;2022-11-20T03:01:34;9.52;;;6.68;;
37559;SDS011;23398;50.928;7.084;2022-11-20T03:04:00;8.40;;;6.65;;
37559;SDS011;23398;50.928;7.084;2022-11-20T03:06:25;8.73;;;6.65;;
37559;SDS011;23398;50.928;7.084;2022-11-20T03:08:51;7.75;;;6.28;;
37559;SDS011;23398;50.928;7.084;2022-11-20T03:11:16;8.00;;;6.63;;
37559;SDS011;23398;50.928;7.084;2022-11-20T03:13:42;8.52;;;6.82;;
37559;SDS011;23398;50.928;7.084;2022-11-20T03:16:09;8.48;;;6.85;;
37559;SDS011;23398;50.928;7.084;2022-11-20T03:18:37;8.77;;;6.75;;
37559;SDS011;23398;50.928;7.084;2022-11-20T03:21:02;8.70;;;6.90;;
37559;SDS011;23398;50.928;7.084;2022-11-20T03:23:29;9.00;;;6.82;;
37559;SDS011;23398;50.928;7.084;2022-11-20T03:25:56;9.32;;;6.47;;
37559;SDS011;23398;50.928;7.084;2022-11-20T03:28:36;8.63;;;6.85;;
37559;SDS011;23398;50.928;7.084;2022-11-20T03:31:05;8.43;;;6.70;;
37559;SDS011;23398;50.928;7.084;2022-11-20T03:33:33;8.60;;;6.80;;
37559;SDS011;23398;50.928;7.084;2022-11-20T03:36:02;8.13;;;6.85;;
37559;SDS011;23398;50.928;7.084;2022-11-20T03:38:30;9.60;;;6.72;;
37559;SDS011;23398;50.928;7.084;2022-11-20T03:41:03;8.98;;;6.22;;
37559;SDS011;23398;50.928;7.084;2022-11-20T03:43:31;9.75;;;7.32;;
37559;SDS011;23398;50.928;7.084;2022-11-20T03:45:57;8.90;;;7.18;;
37559;SDS011;23398;50.928;7.084;2022-11-20T03:48:23;9.10;;;6.97;;
37559;SDS011;23398;50.928;7.084;2022-11-20T03:50:49;7.95;;;6.50;;
37559;SDS011;23398;50.928;7.084;2022-11-20T03:53:15;11.38;;;7.00;;
37559;SDS011;23398;50.928;7.084;2022-11-20T03:55:41;8.05;;;6.65;;
37559;SDS011;23398;50.928;7.084;2022-11-20T03:58:06;8.73;;;6.82;;
37559;SDS011;23398;50.928;7.084;2022-11-20T04:00:32;8.60;;;6.45;;
37559;SDS011;23398;50.928;7.084;2022-11-20T04:02:58;9.00;;;6.55;;
37559;SDS011;23398;50.928;7.084;2022-11-20T04:05:24;10.27;;;7.18;;
37559;SDS011;23398;50.928;7.084;2022-11-20T04:07:50;9.40;;;6.97;;
37559;SDS011;23398;50.928;7.084;2022-11-20T04:10:16;9.35;;;7.40;;
37559;SDS011;23398;50.928;7.084;2022-11-20T04:12:42;9.27;;;6.78;;
37559;SDS011;23398;50.928;7.084;2022-11-20T04:15:08;9.23;;;6.78;;
37559;SDS011;23398;50.928;7.084;2022-11-20T04:17:33;8.48;;;6.93;;
37559;SDS011;23398;50.928;7.084;2022-11-20T04:19:59;8.90;;;6.72;;
37559;SDS011;23398;50.928;7.084;2022-11-20T04:22:24;9.75;;;6.93;;
37559;SDS011;23398;50.928;7.084;2022-11-20T04:24:50;11.02;;;7.53;;
37559;SDS011;23398;50.928;7.084;2022-11-20T04:27:15;9.52;;;7.43;;
37559;SDS011;23398;50.928;7.084;2022-11-20T04:29:41;8.65;;;6.93;;
37559;SDS011;23398;50.928;7.084;2022-11-20T04:32:07;8.73;;;6.75;;
37559;SDS011;23398;50.928;7.084;2022-11-20T04:34:32;8.60;;;6.75;;
37559;SDS011;23398;50.928;7.084;2022-11-20T04:36:58;9.13;;;6.85;;
37559;SDS011;23398;50.928;7.084;2022-11-20T04:39:24;8.98;;;6.78;;
37559;SDS011;23398;50.928;7.084;2022-11-20T04:41:49;8.43;;;6.78;;
37559;SDS011;23398;50.928;7.084;2022-11-20T04:44:35;9.35;;;6.65;;
37559;SDS011;23398;50.928;7.084;2022-11-20T04:47:00;9.88;;;6.85;;
37559;SDS011;23398;50.928;7.084;2022-11-20T04:49:26;9.70;;;7.18;;
37559;SDS011;23398;50.928;7.084;2022-11-20T04:51:54;8.55;;;6.68;;
37559;SDS011;23398;50.928;7.084;2022-11-20T04:54:20;8.25;;;6.28;;
37559;SDS011;23398;50.928;7.084;2022-11-20T04:56:49;8.27;;;6.47;;
37559;SDS011;23398;50.928;7.084;2022-11-20T04:59:15;8.13;;;6.05;;
37559;SDS011;23398;50.928;7.084;2022-11-20T05:01:40;8.35;;;6.55;;
37559;SDS011;23398;50.928;7.084;2022-11-20T05:04:06;7.28;;;5.57;;
37559;SDS011;23398;50.928;7.084;2022-11-20T05:06:32;14.68;;;9.55;;
37559;SDS011;23398;50.928;7.084;2022-11-20T05:08:57;10.65;;;7.82;;
37559;SDS011;23398;50.928;7.084;2022-11-20T05:11:23;14.13;;;9.32;;
37559;SDS011;23398;50.928;7.084;2022-11-20T05:13:50;12.77;;;8.07;;
37559;SDS011;23398;50.928;7.084;2022-11-20T05:16:17;10.32;;;6.93;;
37559;SDS011;23398;50.928;7.084;2022-11-20T05:18:44;9.18;;;6.75;;
37559;SDS011;23398;50.928;7.084;2022-11-20T05:21:11;7.57;;;5.93;;
37559;SDS011;23398;50.928;7.084;2022-11-20T05:23:37;8.88;;;6.47;;
37559;SDS011;23398;50.928;7.084;2022-11-20T05:26:04;8.88;;;6.57;;
37559;SDS011;23398;50.928;7.084;2022-11-20T05:28:32;7.85;;;6.30;;
37559;SDS011;23398;50.928;7.084;2022-11-20T05:31:11;8.18;;;6.05;;
37559;SDS011;23398;50.928;7.084;2022-11-20T05:33:41;9.18;;;6.35;;
37559;SDS011;23398;50.928;7.084;2022-11-20T05:36:08;9.55;;;6.55;;
37559;SDS011;23398;50.928;7.084;2022-11-20T05:38:34;7.03;;;5.63;;
37559;SDS011;23398;50.928;7.084;2022-11-20T05:41:04;8.60;;;6.10;;
37559;SDS011;23398;50.928;7.084;2022-11-20T05:43:33;7.72;;;6.28;;
37559;SDS011;23398;50.928;7.084;2022-11-20T05:46:00;8.02;;;6.43;;
37559;SDS011;23398;50.928;7.084;2022-11-20T05:48:27;8.95;;;6.68;;
37559;SDS011;23398;50.928;7.084;2022-11-20T05:50:52;8.10;;;6.40;;
37559;SDS011;23398;50.928;7.084;2022-11-20T05:53:18;8.48;;;6.80;;
37559;SDS011;23398;50.928;7.084;2022-11-20T05:55:44;8.75;;;6.80;;
37559;SDS011;23398;50.928;7.084;2022-11-20T05:58:09;9.57;;;6.63;;
37559;SDS011;23398;50.928;7.084;2022-11-20T06:00:35;8.23;;;6.68;;
37559;SDS011;23398;50.928;7.084;2022-11-20T06:03:01;10.07;;;6.47;;
37559;SDS011;23398;50.928;7.084;2022-11-20T06:05:27;9.88;;;7.03;;
37559;SDS011;23398;50.928;7.084;2022-11-20T06:07:52;7.25;;;6.05;;
37559;SDS011;23398;50.928;7.084;2022-11-20T06:10:18;9.20;;;7.05;;
37559;SDS011;23398;50.928;7.084;2022-11-20T06:12:43;7.93;;;6.70;;
37559;SDS011;23398;50.928;7.084;2022-11-20T06:15:09;9.18;;;6.40;;
37559;SDS011;23398;50.928;7.084;2022-11-20T06:17:38;8.80;;;6.80;;
37559;SDS011;23398;50.928;7.084;2022-11-20T06:20:03;9.60;;;6.68;;
37559;SDS011;23398;50.928;7.084;2022-11-20T06:22:29;8.80;;;6.90;;
37559;SDS011;23398;50.928;7.084;2022-11-20T06:24:55;8.80;;;6.70;;
37559;SDS011;23398;50.928;7.084;2022-11-20T06:27:20;10.38;;;7.25;;
37559;SDS011;23398;50.928;7.084;2022-11-20T06:29:46;9.40;;;6.78;;
37559;SDS011;23398;50.928;7.084;2022-11-20T06:32:11;9.02;;;6.28;;
37559;SDS011;23398;50.928;7.084;2022-11-20T06:34:37;8.43;;;6.65;;
37559;SDS011;23398;50.928;7.084;2022-11-20T06:37:03;8.75;;;6.97;;
37559;SDS011;23398;50.928;7.084;2022-11-20T06:39:28;8.02;;;6.47;;
37559;SDS011;23398;50.928;7.084;2022-11-20T06:41:54;9.68;;;7.28;;
37559;SDS011;23398;50.928;7.084;2022-11-20T06:44:19;9.48;;;7.30;;
37559;SDS011;23398;50.928;7.084;2022-11-20T06:46:45;9.35;;;7.00;;
37559;SDS011;23398;50.928;7.084;2022-11-20T06:49:10;9.25;;;7.00;;
37559;SDS011;23398;50.928;7.084;2022-11-20T06:51:36;9.32;;;7.50;;
37559;SDS011;23398;50.928;7.084;2022-11-20T06:54:01;9.00;;;7.00;;
37559;SDS011;23398;50.928;7.084;2022-11-20T06:56:27;10.07;;;7.50;;
37559;SDS011;23398;50.928;7.084;2022-11-20T06:58:53;9.93;;;7.57;;
37559;SDS011;23398;50.928;7.084;2022-11-20T07:01:19;9.65;;;7.30;;
37559;SDS011;23398;50.928;7.084;2022-11-20T07:03:44;9.25;;;7.10;;
37559;SDS011;23398;50.928;7.084;2022-11-20T07:06:10;9.90;;;6.78;;
37559;SDS011;23398;50.928;7.084;2022-11-20T07:08:36;8.93;;;6.75;;
37559;SDS011;23398;50.928;7.084;2022-11-20T07:11:05;9.15;;;6.88;;
37559;SDS011;23398;50.928;7.084;2022-11-20T07:13:32;10.05;;;7.07;;
37559;SDS011;23398;50.928;7.084;2022-11-20T07:15:59;10.88;;;7.72;;
37559;SDS011;23398;50.928;7.084;2022-11-20T07:18:26;9.45;;;7.13;;
37559;SDS011;23398;50.928;7.084;2022-11-20T07:20:51;11.15;;;7.38;;
37559;SDS011;23398;50.928;7.084;2022-11-20T07:23:17;9.48;;;6.82;;
37559;SDS011;23398;50.928;7.084;2022-11-20T07:25:42;8.63;;;6.90;;
37559;SDS011;23398;50.928;7.084;2022-11-20T07:28:08;9.55;;;7.20;;
37559;SDS011;23398;50.928;7.084;2022-11-20T07:30:35;9.55;;;7.07;;
37559;SDS011;23398;50.928;7.084;2022-11-20T07:33:01;10.13;;;7.30;;
37559;SDS011;23398;50.928;7.084;2022-11-20T07:35:26;8.70;;;6.85;;
37559;SDS011;23398;50.928;7.084;2022-11-20T07:37:52;9.85;;;7.18;;
37559;SDS011;23398;50.928;7.084;2022-11-20T07:40:17;10.98;;;7.25;;
37559;SDS011;23398;50.928;7.084;2022-11-20T07:42:49;10.18;;;7.70;;
37559;SDS011;23398;50.928;7.084;2022-11-20T07:45:19;9.77;;;7.05;;
37559;SDS011;23398;50.928;7.084;2022-11-20T07:47:46;9.88;;;7.80;;
37559;SDS011;23398;50.928;7.084;2022-11-20T07:50:12;10.10;;;7.43;;
37559;SDS011;23398;50.928;7.084;2022-11-20T07:52:38;9.80;;;7.22;;
37559;SDS011;23398;50.928;7.084;2022-11-20T07:55:04;11.07;;;7.88;;
37559;SDS011;23398;50.928;7.084;2022-11-20T07:57:30;11.32;;;8.35;;
37559;SDS011;23398;50.928;7.084;2022-11-20T07:59:56;11.35;;;8.40;;
37559;SDS011;23398;50.928;7.084;2022-11-20T08:02:21;10.85;;;8.38;;
37559;SDS011;23398;50.928;7.084;2022-11-20T08:04:47;10.68;;;8.00;;
37559;SDS011;23398;50.928;7.084;2022-11-20T08:07:13;9.57;;;7.85;;
37559;SDS011;23398;50.928;7.084;2022-11-20T08:09:38;10.02;;;7.93;;
37559;SDS011;23398;50.928;7.084;2022-11-20T08:12:04;10.05;;;7.82;;
37559;SDS011;23398;50.928;7.084;2022-11-20T08:14:48;11.48;;;8.48;;
37559;SDS011;23398;50.928;7.084;2022-11-20T08:17:13;11.15;;;8.43;;
37559;SDS011;23398;50.928;7.084;2022-11-20T08:19:39;14.23;;;9.82;;
37559;SDS011;23398;50.928;7.084;2022-11-20T08:22:04;19.20;;;10.48;;
37559;SDS011;23398;50.928;7.084;2022-11-20T08:24:30;16.40;;;10.70;;
37559;SDS011;23398;50.928;7.084;2022-11-20T08:26:59;14.82;;;10.20;;
37559;SDS011;23398;50.928;7.084;2022-11-20T08:29:27;11.88;;;9.05;;
37559;SDS011;23398;50.928;7.084;2022-11-20T08:31:53;11.60;;;8.68;;
37559;SDS011;23398;50.928;7.084;2022-11-20T08:34:18;10.80;;;8.05;;
37559;SDS011;23398;50.928;7.084;2022-11-20T08:36:44;11.90;;;8.27;;
37559;SDS011;23398;50.928;7.084;2022-11-20T08:39:13;11.15;;;8.20;;
37559;SDS011;23398;50.928;7.084;2022-11-20T08:41:39;11.38;;;8.48;;
37559;SDS011;23398;50.928;7.084;2022-11-20T08:44:05;10.77;;;8.30;;
37559;SDS011;23398;50.928;7.084;2022-11-20T08:46:33;12.23;;;9.02;;
37559;SDS011;23398;50.928;7.084;2022-11-20T08:49:02;10.85;;;8.45;;
37559;SDS011;23398;50.928;7.084;2022-11-20T08:51:29;12.80;;;8.98;;
37559;SDS011;23398;50.928;7.084;2022-11-20T08:53:54;12.60;;;8.98;;
37559;SDS011;23398;50.928;7.084;2022-11-20T08:56:20;12.52;;;9.20;;
37559;SDS011;23398;50.928;7.084;2022-11-20T08:58:45;11.30;;;9.38;;
37559;SDS011;23398;50.928;7.084;2022-11-20T09:01:11;13.05;;;9.13;;
37559;SDS011;23398;50.928;7.084;2022-11-20T09:03:37;13.32;;;9.63;;
37559;SDS011;23398;50.928;7.084;2022-11-20T09:06:03;12.05;;;9.68;;
37559;SDS011;23398;50.928;7.084;2022-11-20T09:08:31;13.68;;;9.55;;
37559;SDS011;23398;50.928;7.084;2022-11-20T09:10:57;12.82;;;9.40;;
37559;SDS011;23398;50.928;7.084;2022-11-20T09:13:24;11.88;;;9.13;;
37559;SDS011;23398;50.928;7.084;2022-11-20T09:18:21;11.02;;;9.13;;
37559;SDS011;23398;50.928;7.084;2022-11-20T09:20:47;12.93;;;9.00;;
37559;SDS011;23398;50.928;7.084;2022-11-20T09:23:14;12.48;;;9.32;;
37559;SDS011;23398;50.928;7.084;2022-11-20T09:25:39;13.23;;;9.40;;
37559;SDS011;23398;50.928;7.084;2022-11-20T09:28:05;12.75;;;9.48;;
37559;SDS011;23398;50.928;7.084;2022-11-20T09:30:31;11.20;;;8.82;;
37559;SDS011;23398;50.928;7.084;2022-11-20T09:32:56;11.63;;;8.70;;
37559;SDS011;23398;50.928;7.084;2022-11-20T09:35:22;11.93;;;9.27;;
37559;SDS011;23398;50.928;7.084;2022-11-20T09:37:47;12.40;;;9.60;;
37559;SDS011;23398;50.928;7.084;2022-11-20T09:40:23;12.40;;;9.45;;
37559;SDS011;23398;50.928;7.084;2022-11-20T09:42:55;13.10;;;9.27;;
37559;SDS011;23398;50.928;7.084;2022-11-20T09:51:34;13.35;;;9.15;;
37559;SDS011;23398;50.928;7.084;2022-11-20T09:54:19;11.25;;;8.52;;
37559;SDS011;23398;50.928;7.084;2022-11-20T09:56:51;11.43;;;8.95;;
37559;SDS011;23398;50.928;7.084;2022-11-20T09:59:27;10.80;;;8.60;;
37559;SDS011;23398;50.928;7.084;2022-11-20T10:01:58;10.23;;;8.50;;
37559;SDS011;23398;50.928;7.084;2022-11-20T10:04:25;11.13;;;8.48;;
37559;SDS011;23398;50.928;7.084;2022-11-20T10:07:07;12.02;;;9.43;;
37559;SDS011;23398;50.928;7.084;2022-11-20T10:09:38;12.27;;;8.68;;
37559;SDS011;23398;50.928;7.084;2022-11-20T10:20:30;10.25;;;8.30;;
37559;SDS011;23398;50.928;7.084;2022-11-20T10:28:48;11.73;;;7.60;;
37559;SDS011;23398;50.928;7.084;2022-11-20T10:31:42;12.25;;;9.35;;
37559;SDS011;23398;50.928;7.084;2022-11-20T10:34:21;13.55;;;10.00;;
37559;SDS011;23398;50.928;7.084;2022-11-20T10:37:11;12.38;;;8.98;;
37559;SDS011;23398;50.928;7.084;2022-11-20T10:39:41;12.25;;;9.05;;
37559;SDS011;23398;50.928;7.084;2022-11-20T10:42:15;11.90;;;9.00;;
37559;SDS011;23398;50.928;7.084;2022-11-20T10:44:47;11.18;;;8.90;;
37559;SDS011;23398;50.928;7.084;2022-11-20T10:47:26;11.77;;;8.60;;
37559;SDS011;23398;50.928;7.084;2022-11-20T10:49:55;13.45;;;9.75;;
37559;SDS011;23398;50.928;7.084;2022-11-20T10:52:42;13.20;;;9.65;;
37559;SDS011;23398;50.928;7.084;2022-11-20T10:55:36;13.27;;;9.27;;
37559;SDS011;23398;50.928;7.084;2022-11-20T11:01:05;13.32;;;10.15;;
37559;SDS011;23398;50.928;7.084;2022-11-20T11:03:40;13.00;;;9.43;;
37559;SDS011;23398;50.928;7.084;2022-11-20T11:06:10;12.30;;;9.07;;
37559;SDS011;23398;50.928;7.084;2022-11-20T11:08:51;13.50;;;10.23;;
37559;SDS011;23398;50.928;7.084;2022-11-20T11:11:31;13.65;;;9.57;;
37559;SDS011;23398;50.928;7.084;2022-11-20T11:14:05;14.10;;;10.25;;
37559;SDS011;23398;50.928;7.084;2022-11-20T11:16:31;11.13;;;8.63;;
37559;SDS011;23398;50.928;7.084;2022-11-20T11:19:10;12.15;;;9.13;;
37559;SDS011;23398;50.928;7.084;2022-11-20T11:21:44;13.27;;;9.43;;
37559;SDS011;23398;50.928;7.084;2022-11-20T11:24:23;13.35;;;9.52;;
37559;SDS011;23398;50.928;7.084;2022-11-20T11:27:03;12.00;;;8.93;;
37559;SDS011;23398;50.928;7.084;2022-11-20T11:29:36;11.60;;;8.90;;
37559;SDS011;23398;50.928;7.084;2022-11-20T11:34:43;13.50;;;9.20;;
37559;SDS011;23398;50.928;7.084;2022-11-20T11:37:18;12.65;;;9.43;;
37559;SDS011;23398;50.928;7.084;2022-11-20T11:39:46;12.57;;;9.45;;
37559;SDS011;23398;50.928;7.084;2022-11-20T11:42:15;10.88;;;8.68;;
37559;SDS011;23398;50.928;7.084;2022-11-20T11:44:44;13.40;;;9.23;;
37559;SDS011;23398;50.928;7.084;2022-11-20T11:47:31;12.30;;;8.70;;
37559;SDS011;23398;50.928;7.084;2022-11-20T11:50:34;11.75;;;8.30;;
37559;SDS011;23398;50.928;7.084;2022-11-20T11:53:08;11.60;;;8.98;;
37559;SDS011;23398;50.928;7.084;2022-11-20T11:55:38;13.30;;;9.10;;
37559;SDS011;23398;50.928;7.084;2022-11-20T11:58:11;14.52;;;9.73;;
37559;SDS011;23398;50.928;7.084;2022-11-20T12:01:00;12.75;;;9.30;;
37559;SDS011;23398;50.928;7.084;2022-11-20T12:03:37;12.23;;;9.60;;
37559;SDS011;23398;50.928;7.084;2022-11-20T12:06:10;11.95;;;9.00;;
37559;SDS011;23398;50.928;7.084;2022-11-20T12:08:53;14.48;;;9.57;;
37559;SDS011;23398;50.928;7.084;2022-11-20T12:11:37;12.52;;;9.00;;
37559;SDS011;23398;50.928;7.084;2022-11-20T12:14:11;13.18;;;9.48;;
37559;SDS011;23398;50.928;7.084;2022-11-20T12:16:42;13.05;;;8.93;;
37559;SDS011;23398;50.928;7.084;2022-11-20T12:19:08;14.13;;;9.70;;
37559;SDS011;23398;50.928;7.084;2022-11-20T12:24:29;13.45;;;9.30;;
37559;SDS011;23398;50.928;7.084;2022-11-20T12:27:18;12.20;;;9.15;;
37559;SDS011;23398;50.928;7.084;2022-11-20T12:40:35;14.73;;;9.35;;
37559;SDS011;23398;50.928;7.084;2022-11-20T12:54:53;12.50;;;8.85;;
37559;SDS011;23398;50.928;7.084;2022-11-20T12:57:46;13.75;;;8.70;;
37559;SDS011;23398;50.928;7.084;2022-11-20T13:00:19;12.00;;;8.88;;
37559;SDS011;23398;50.928;7.084;2022-11-20T13:05:54;11.82;;;8.45;;
37559;SDS011;23398;50.928;7.084;2022-11-20T13:08:35;11.60;;;8.50;;
37559;SDS011;23398;50.928;7.084;2022-11-20T13:11:21;11.00;;;8.02;;
37559;SDS011;23398;50.928;7.084;2022-11-20T13:14:10;10.20;;;8.32;;
37559;SDS011;23398;50.928;7.084;2022-11-20T13:19:33;10.23;;;7.75;;
37559;SDS011;23398;50.928;7.084;2022-11-20T13:21:59;13.45;;;8.52;;
37559;SDS011;23398;50.928;7.084;2022-11-20T13:24:26;11.88;;;8.90;;
37559;SDS011;23398;50.928;7.084;2022-11-20T13:29:33;12.45;;;9.35;;
37559;SDS011;23398;50.928;7.084;2022-11-20T13:32:03;10.30;;;7.90;;
37559;SDS011;23398;50.928;7.084;2022-11-20T13:34:31;12.18;;;8.75;;
37559;SDS011;23398;50.928;7.084;2022-11-20T13:36:58;12.93;;;9.27;;
37559;SDS011;23398;50.928;7.084;2022-11-20T13:39:26;11.98;;;8.35;;
37559;SDS011;23398;50.928;7.084;2022-11-20T13:41:57;12.15;;;8.90;;
37559;SDS011;23398;50.928;7.084;2022-11-20T13:47:03;11.48;;;8.15;;
37559;SDS011;23398;50.928;7.084;2022-11-20T13:49:33;11.13;;;8.40;;
37559;SDS011;23398;50.928;7.084;2022-11-20T13:57:46;11.80;;;8.57;;
37559;SDS011;23398;50.928;7.084;2022-11-20T14:00:28;12.05;;;8.50;;
37559;SDS011;23398;50.928;7.084;2022-11-20T14:05:25;11.68;;;8.98;;
37559;SDS011;23398;50.928;7.084;2022-11-20T14:07:51;11.65;;;8.70;;
37559;SDS011;23398;50.928;7.084;2022-11-20T14:12:53;10.40;;;7.63;;
37559;SDS011;23398;50.928;7.084;2022-11-20T14:15:29;12.27;;;8.63;;
37559;SDS011;23398;50.928;7.084;2022-11-20T14:17:57;11.98;;;8.50;;
37559;SDS011;23398;50.928;7.084;2022-11-20T14:20:24;10.77;;;7.78;;
37559;SDS011;23398;50.928;7.084;2022-11-20T14:22:53;13.15;;;8.40;;
37559;SDS011;23398;50.928;7.084;2022-11-20T14:25:21;11.60;;;8.20;;
37559;SDS011;23398;50.928;7.084;2022-11-20T14:27:52;10.43;;;7.78;;
37559;SDS011;23398;50.928;7.084;2022-11-20T14:30:20;11.38;;;8.45;;
37559;SDS011;23398;50.928;7.084;2022-11-20T14:32:51;10.63;;;8.13;;
37559;SDS011;23398;50.928;7.084;2022-11-20T14:35:25;10.52;;;7.55;;
37559;SDS011;23398;50.928;7.084;2022-11-20T14:37:52;10.60;;;7.93;;
37559;SDS011;23398;50.928;7.084;2022-11-20T14:42:47;11.70;;;8.48;;
37559;SDS011;23398;50.928;7.084;2022-11-20T14:45:13;10.30;;;7.63;;
37559;SDS011;23398;50.928;7.084;2022-11-20T14:47:39;10.90;;;8.38;;
37559;SDS011;23398;50.928;7.084;2022-11-20T14:50:08;10.02;;;8.10;;
37559;SDS011;23398;50.928;7.084;2022-11-20T14:52:55;11.90;;;8.38;;
37559;SDS011;23398;50.928;7.084;2022-11-20T14:55:25;9.82;;;8.13;;
37559;SDS011;23398;50.928;7.084;2022-11-20T14:57:55;11.40;;;8.50;;
37559;SDS011;23398;50.928;7.084;2022-11-20T15:00:22;10.52;;;8.25;;
37559;SDS011;23398;50.928;7.084;2022-11-20T15:02:48;10.68;;;8.30;;
37559;SDS011;23398;50.928;7.084;2022-11-20T15:05:16;11.60;;;8.27;;
37559;SDS011;23398;50.928;7.084;2022-11-20T15:07:44;12.85;;;8.68;;
37559;SDS011;23398;50.928;7.084;2022-11-20T15:10:13;11.50;;;8.30;;
37559;SDS011;23398;50.928;7.084;2022-11-20T15:12:52;10.25;;;7.70;;
37559;SDS011;23398;50.928;7.084;2022-11-20T15:15:33;12.73;;;8.75;;
37559;SDS011;23398;50.928;7.084;2022-11-20T15:18:05;13.98;;;9.43;;
37559;SDS011;23398;50.928;7.084;2022-11-20T15:20:36;13.32;;;9.40;;
37559;SDS011;23398;50.928;7.084;2022-11-20T15:23:01;12.75;;;9.85;;
37559;SDS011;23398;50.928;7.084;2022-11-20T15:25:33;10.52;;;8.68;;
37559;SDS011;23398;50.928;7.084;2022-11-20T15:27:59;10.57;;;8.43;;
37559;SDS011;23398;50.928;7.084;2022-11-20T15:30:25;12.88;;;8.65;;
37559;SDS011;23398;50.928;7.084;2022-11-20T15:32:50;12.40;;;9.32;;
37559;SDS011;23398;50.928;7.084;2022-11-20T15:35:16;10.90;;;8.25;;
37559;SDS011;23398;50.928;7.084;2022-11-20T15:37:42;12.48;;;8.05;;
37559;SDS011;23398;50.928;7.084;2022-11-20T15:40:08;13.38;;;8.02;;
37559;SDS011;23398;50.928;7.084;2022-11-20T15:42:34;9.85;;;7.53;;
37559;SDS011;23398;50.928;7.084;2022-11-20T15:45:00;9.65;;;7.55;;
37559;SDS011;23398;50.928;7.084;2022-11-20T15:47:33;10.55;;;7.57;;
37559;SDS011;23398;50.928;7.084;2022-11-20T15:50:00;10.63;;;7.53;;
37559;SDS011;23398;50.928;7.084;2022-11-20T15:52:25;10.98;;;7.68;;
37559;SDS011;23398;50.928;7.084;2022-11-20T15:54:51;9.95;;;7.65;;
37559;SDS011;23398;50.928;7.084;2022-11-20T15:57:17;10.77;;;7.57;;
37559;SDS011;23398;50.928;7.084;2022-11-20T15:59:42;10.55;;;7.60;;
37559;SDS011;23398;50.928;7.084;2022-11-20T16:02:11;11.88;;;7.75;;
37559;SDS011;23398;50.928;7.084;2022-11-20T16:04:37;10.15;;;7.15;;
37559;SDS011;23398;50.928;7.084;2022-11-20T16:07:03;10.40;;;7.53;;
37559;SDS011;23398;50.928;7.084;2022-11-20T16:09:29;12.23;;;8.40;;
37559;SDS011;23398;50.928;7.084;2022-11-20T16:11:55;10.52;;;7.35;;
37559;SDS011;23398;50.928;7.084;2022-11-20T16:14:20;9.73;;;7.13;;